sensor_id;sensor_type;location;lat;lon;timestamp;P1;durP1;ratioP1;P2;durP2;ratioP2
19205;SDS011;59358;52.134;5.596;2024-01-15T00:01:49;10.43;;;1.88;;
19205;SDS011;59358;52.134;5.596;2024-01-15T00:04:16;9.93;;;2.45;;
19205;SDS011;59358;52.134;5.596;2024-01-15T00:06:43;10.00;;;2.15;;
19205;SDS011;59358;52.134;5.596;2024-01-15T00:09:09;17.77;;;2.22;;
19205;SDS011;59358;52.134;5.596;2024-01-15T00:11:36;11.43;;;1.90;;
19205;SDS011;59358;52.134;5.596;2024-01-15T00:14:03;12.55;;;2.38;;
19205;SDS011;59358;52.134;5.596;2024-01-15T00:16:31;12.68;;;1.65;;
19205;SDS011;59358;52.134;5.596;2024-01-15T00:18:58;19.70;;;2.58;;
19205;SDS011;59358;52.134;5.596;2024-01-15T00:21:25;15.25;;;2.45;;
19205;SDS011;59358;52.134;5.596;2024-01-15T00:23:52;19.42;;;2.58;;
19205;SDS011;59358;52.134;5.596;2024-01-15T00:26:19;14.73;;;2.38;;
19205;SDS011;59358;52.134;5.596;2024-01-15T00:28:46;12.63;;;3.15;;
19205;SDS011;59358;52.134;5.596;2024-01-15T00:31:12;7.70;;;1.35;;
19205;SDS011;59358;52.134;5.596;2024-01-15T00:33:43;11.48;;;2.53;;
19205;SDS011;59358;52.134;5.596;2024-01-15T00:36:10;11.77;;;2.28;;
19205;SDS011;59358;52.134;5.596;2024-01-15T00:38:36;13.07;;;1.70;;
19205;SDS011;59358;52.134;5.596;2024-01-15T00:41:03;21.40;;;3.55;;
19205;SDS011;59358;52.134;5.596;2024-01-15T00:43:30;7.82;;;1.90;;
19205;SDS011;59358;52.134;5.596;2024-01-15T00:45:57;11.40;;;2.58;;
19205;SDS011;59358;52.134;5.596;2024-01-15T00:48:24;15.73;;;2.42;;
19205;SDS011;59358;52.134;5.596;2024-01-15T00:50:52;7.50;;;2.20;;
19205;SDS011;59358;52.134;5.596;2024-01-15T00:53:19;14.98;;;3.15;;
19205;SDS011;59358;52.134;5.596;2024-01-15T00:55:47;16.83;;;3.33;;
19205;SDS011;59358;52.134;5.596;2024-01-15T00:58:13;12.20;;;3.40;;
19205;SDS011;59358;52.134;5.596;2024-01-15T01:00:40;10.95;;;2.63;;
19205;SDS011;59358;52.134;5.596;2024-01-15T01:03:07;20.63;;;2.42;;
19205;SDS011;59358;52.134;5.596;2024-01-15T01:05:34;18.05;;;3.13;;
19205;SDS011;59358;52.134;5.596;2024-01-15T01:08:03;10.80;;;3.47;;
19205;SDS011;59358;52.134;5.596;2024-01-15T01:10:30;11.50;;;2.40;;
19205;SDS011;59358;52.134;5.596;2024-01-15T01:12:57;11.63;;;2.90;;
19205;SDS011;59358;52.134;5.596;2024-01-15T01:15:23;19.38;;;3.00;;
19205;SDS011;59358;52.134;5.596;2024-01-15T01:17:50;14.57;;;2.67;;
19205;SDS011;59358;52.134;5.596;2024-01-15T01:20:17;6.95;;;2.25;;
19205;SDS011;59358;52.134;5.596;2024-01-15T01:22:44;14.90;;;3.45;;
19205;SDS011;59358;52.134;5.596;2024-01-15T01:25:12;15.23;;;2.95;;
19205;SDS011;59358;52.134;5.596;2024-01-15T01:27:38;14.23;;;2.10;;
19205;SDS011;59358;52.134;5.596;2024-01-15T01:30:06;15.02;;;2.42;;
19205;SDS011;59358;52.134;5.596;2024-01-15T01:32:33;18.15;;;2.63;;
19205;SDS011;59358;52.134;5.596;2024-01-15T01:35:00;19.92;;;2.65;;
19205;SDS011;59358;52.134;5.596;2024-01-15T01:37:27;18.00;;;2.67;;
19205;SDS011;59358;52.134;5.596;2024-01-15T01:39:53;19.50;;;3.10;;
19205;SDS011;59358;52.134;5.596;2024-01-15T01:42:21;15.20;;;2.60;;
19205;SDS011;59358;52.134;5.596;2024-01-15T01:44:48;16.10;;;2.88;;
19205;SDS011;59358;52.134;5.596;2024-01-15T01:47:15;9.27;;;2.33;;
19205;SDS011;59358;52.134;5.596;2024-01-15T01:49:42;16.92;;;2.70;;
19205;SDS011;59358;52.134;5.596;2024-01-15T01:52:09;12.43;;;2.42;;
19205;SDS011;59358;52.134;5.596;2024-01-15T01:54:36;15.02;;;2.78;;
19205;SDS011;59358;52.134;5.596;2024-01-15T01:57:07;14.23;;;2.88;;
19205;SDS011;59358;52.134;5.596;2024-01-15T01:59:36;12.25;;;2.10;;
19205;SDS011;59358;52.134;5.596;2024-01-15T02:02:03;17.13;;;2.30;;
19205;SDS011;59358;52.134;5.596;2024-01-15T02:04:31;16.58;;;3.17;;
19205;SDS011;59358;52.134;5.596;2024-01-15T02:06:59;13.13;;;2.50;;
19205;SDS011;59358;52.134;5.596;2024-01-15T02:09:26;20.63;;;2.85;;
19205;SDS011;59358;52.134;5.596;2024-01-15T02:11:52;15.32;;;2.30;;
19205;SDS011;59358;52.134;5.596;2024-01-15T02:14:20;19.70;;;3.05;;
19205;SDS011;59358;52.134;5.596;2024-01-15T02:16:48;14.43;;;2.05;;
19205;SDS011;59358;52.134;5.596;2024-01-15T02:19:15;21.15;;;2.47;;
19205;SDS011;59358;52.134;5.596;2024-01-15T02:21:42;7.38;;;1.90;;
19205;SDS011;59358;52.134;5.596;2024-01-15T02:24:11;23.10;;;3.22;;
19205;SDS011;59358;52.134;5.596;2024-01-15T02:26:38;14.25;;;2.28;;
19205;SDS011;59358;52.134;5.596;2024-01-15T02:29:05;13.77;;;3.00;;
19205;SDS011;59358;52.134;5.596;2024-01-15T02:31:34;13.27;;;2.17;;
19205;SDS011;59358;52.134;5.596;2024-01-15T02:34:01;11.18;;;1.73;;
19205;SDS011;59358;52.134;5.596;2024-01-15T02:36:28;18.42;;;2.85;;
19205;SDS011;59358;52.134;5.596;2024-01-15T02:38:55;12.63;;;2.22;;
19205;SDS011;59358;52.134;5.596;2024-01-15T02:41:23;11.85;;;2.20;;
19205;SDS011;59358;52.134;5.596;2024-01-15T02:43:49;14.25;;;3.08;;
19205;SDS011;59358;52.134;5.596;2024-01-15T02:46:15;7.82;;;1.63;;
19205;SDS011;59358;52.134;5.596;2024-01-15T02:48:42;7.38;;;1.45;;
19205;SDS011;59358;52.134;5.596;2024-01-15T02:51:09;14.27;;;1.90;;
19205;SDS011;59358;52.134;5.596;2024-01-15T02:53:36;8.43;;;2.08;;
19205;SDS011;59358;52.134;5.596;2024-01-15T02:56:03;10.98;;;2.20;;
19205;SDS011;59358;52.134;5.596;2024-01-15T02:58:31;12.45;;;1.55;;
19205;SDS011;59358;52.134;5.596;2024-01-15T03:00:58;11.60;;;1.88;;
19205;SDS011;59358;52.134;5.596;2024-01-15T03:03:25;12.38;;;1.33;;
19205;SDS011;59358;52.134;5.596;2024-01-15T03:05:51;12.68;;;2.25;;
19205;SDS011;59358;52.134;5.596;2024-01-15T03:08:18;9.23;;;1.60;;
19205;SDS011;59358;52.134;5.596;2024-01-15T03:10:45;5.45;;;0.93;;
19205;SDS011;59358;52.134;5.596;2024-01-15T03:13:12;6.55;;;1.00;;
19205;SDS011;59358;52.134;5.596;2024-01-15T03:15:40;8.68;;;1.00;;
19205;SDS011;59358;52.134;5.596;2024-01-15T03:18:07;8.68;;;1.20;;
19205;SDS011;59358;52.134;5.596;2024-01-15T03:20:34;11.52;;;1.80;;
19205;SDS011;59358;52.134;5.596;2024-01-15T03:23:00;7.85;;;1.42;;
19205;SDS011;59358;52.134;5.596;2024-01-15T03:25:27;11.25;;;1.35;;
19205;SDS011;59358;52.134;5.596;2024-01-15T03:27:54;2.95;;;0.93;;
19205;SDS011;59358;52.134;5.596;2024-01-15T03:30:21;13.23;;;1.60;;
19205;SDS011;59358;52.134;5.596;2024-01-15T03:32:49;11.55;;;1.65;;
19205;SDS011;59358;52.134;5.596;2024-01-15T03:35:16;9.98;;;1.70;;
19205;SDS011;59358;52.134;5.596;2024-01-15T03:37:43;8.25;;;1.50;;
19205;SDS011;59358;52.134;5.596;2024-01-15T03:40:10;5.70;;;0.85;;
19205;SDS011;59358;52.134;5.596;2024-01-15T03:42:37;8.00;;;1.42;;
19205;SDS011;59358;52.134;5.596;2024-01-15T03:45:04;13.75;;;1.52;;
19205;SDS011;59358;52.134;5.596;2024-01-15T03:47:31;7.32;;;1.48;;
19205;SDS011;59358;52.134;5.596;2024-01-15T03:50:00;6.10;;;1.25;;
19205;SDS011;59358;52.134;5.596;2024-01-15T03:52:27;18.55;;;2.47;;
19205;SDS011;59358;52.134;5.596;2024-01-15T03:54:53;5.88;;;1.70;;
19205;SDS011;59358;52.134;5.596;2024-01-15T03:57:20;14.13;;;2.00;;
19205;SDS011;59358;52.134;5.596;2024-01-15T03:59:47;11.13;;;1.80;;
19205;SDS011;59358;52.134;5.596;2024-01-15T04:02:14;8.65;;;1.58;;
19205;SDS011;59358;52.134;5.596;2024-01-15T04:04:41;10.55;;;1.30;;
19205;SDS011;59358;52.134;5.596;2024-01-15T04:07:09;11.20;;;1.80;;
19205;SDS011;59358;52.134;5.596;2024-01-15T04:09:36;6.72;;;1.50;;
19205;SDS011;59358;52.134;5.596;2024-01-15T04:12:03;8.48;;;1.33;;
19205;SDS011;59358;52.134;5.596;2024-01-15T04:14:30;7.63;;;1.80;;
19205;SDS011;59358;52.134;5.596;2024-01-15T04:16:57;8.23;;;1.55;;
19205;SDS011;59358;52.134;5.596;2024-01-15T04:19:24;6.03;;;1.70;;
19205;SDS011;59358;52.134;5.596;2024-01-15T04:21:51;7.70;;;1.63;;
19205;SDS011;59358;52.134;5.596;2024-01-15T04:24:19;3.40;;;1.60;;
19205;SDS011;59358;52.134;5.596;2024-01-15T04:26:45;8.10;;;2.75;;
19205;SDS011;59358;52.134;5.596;2024-01-15T04:29:12;11.43;;;2.30;;
19205;SDS011;59358;52.134;5.596;2024-01-15T04:31:39;10.98;;;3.10;;
19205;SDS011;59358;52.134;5.596;2024-01-15T04:34:06;16.20;;;2.63;;
19205;SDS011;59358;52.134;5.596;2024-01-15T04:36:38;4.82;;;2.00;;
19205;SDS011;59358;52.134;5.596;2024-01-15T04:39:05;14.80;;;2.40;;
19205;SDS011;59358;52.134;5.596;2024-01-15T04:41:33;7.20;;;1.63;;
19205;SDS011;59358;52.134;5.596;2024-01-15T04:44:00;14.15;;;2.38;;
19205;SDS011;59358;52.134;5.596;2024-01-15T04:46:27;8.48;;;2.03;;
19205;SDS011;59358;52.134;5.596;2024-01-15T04:48:53;9.45;;;2.33;;
19205;SDS011;59358;52.134;5.596;2024-01-15T04:51:20;15.27;;;2.65;;
19205;SDS011;59358;52.134;5.596;2024-01-15T04:53:47;10.80;;;2.17;;
19205;SDS011;59358;52.134;5.596;2024-01-15T04:56:14;14.13;;;2.72;;
19205;SDS011;59358;52.134;5.596;2024-01-15T04:58:42;13.52;;;2.78;;
19205;SDS011;59358;52.134;5.596;2024-01-15T05:01:09;11.25;;;2.58;;
19205;SDS011;59358;52.134;5.596;2024-01-15T05:03:36;11.65;;;2.35;;
19205;SDS011;59358;52.134;5.596;2024-01-15T05:06:02;9.38;;;3.20;;
19205;SDS011;59358;52.134;5.596;2024-01-15T05:08:29;11.55;;;1.83;;
19205;SDS011;59358;52.134;5.596;2024-01-15T05:10:55;11.20;;;2.63;;
19205;SDS011;59358;52.134;5.596;2024-01-15T05:13:22;5.47;;;2.10;;
19205;SDS011;59358;52.134;5.596;2024-01-15T05:15:50;11.20;;;2.63;;
19205;SDS011;59358;52.134;5.596;2024-01-15T05:18:17;15.77;;;2.50;;
19205;SDS011;59358;52.134;5.596;2024-01-15T05:20:44;12.50;;;2.00;;
19205;SDS011;59358;52.134;5.596;2024-01-15T05:23:11;12.63;;;2.47;;
19205;SDS011;59358;52.134;5.596;2024-01-15T05:25:37;10.70;;;2.13;;
19205;SDS011;59358;52.134;5.596;2024-01-15T05:28:04;19.58;;;1.80;;
19205;SDS011;59358;52.134;5.596;2024-01-15T05:30:31;13.13;;;2.35;;
19205;SDS011;59358;52.134;5.596;2024-01-15T05:33:00;17.92;;;2.63;;
19205;SDS011;59358;52.134;5.596;2024-01-15T05:35:27;11.80;;;2.40;;
19205;SDS011;59358;52.134;5.596;2024-01-15T05:37:54;7.10;;;1.88;;
19205;SDS011;59358;52.134;5.596;2024-01-15T05:40:21;11.68;;;1.90;;
19205;SDS011;59358;52.134;5.596;2024-01-15T05:42:48;13.90;;;2.70;;
19205;SDS011;59358;52.134;5.596;2024-01-15T05:45:15;11.38;;;2.40;;
19205;SDS011;59358;52.134;5.596;2024-01-15T05:47:42;18.90;;;2.38;;
19205;SDS011;59358;52.134;5.596;2024-01-15T05:50:10;13.25;;;2.72;;
19205;SDS011;59358;52.134;5.596;2024-01-15T05:52:37;14.23;;;1.95;;
19205;SDS011;59358;52.134;5.596;2024-01-15T05:55:04;11.18;;;1.88;;
19205;SDS011;59358;52.134;5.596;2024-01-15T05:57:31;16.15;;;4.10;;
19205;SDS011;59358;52.134;5.596;2024-01-15T05:59:58;10.65;;;2.47;;
19205;SDS011;59358;52.134;5.596;2024-01-15T06:02:25;16.42;;;2.80;;
19205;SDS011;59358;52.134;5.596;2024-01-15T06:04:52;12.23;;;2.58;;
19205;SDS011;59358;52.134;5.596;2024-01-15T06:07:20;11.10;;;2.90;;
19205;SDS011;59358;52.134;5.596;2024-01-15T06:09:49;8.88;;;1.70;;
19205;SDS011;59358;52.134;5.596;2024-01-15T06:12:15;13.15;;;2.58;;
19205;SDS011;59358;52.134;5.596;2024-01-15T06:14:42;11.27;;;2.05;;
19205;SDS011;59358;52.134;5.596;2024-01-15T06:17:09;14.00;;;2.67;;
19205;SDS011;59358;52.134;5.596;2024-01-15T06:19:36;11.13;;;2.92;;
19205;SDS011;59358;52.134;5.596;2024-01-15T06:22:03;8.63;;;2.30;;
19205;SDS011;59358;52.134;5.596;2024-01-15T06:24:31;13.52;;;2.40;;
19205;SDS011;59358;52.134;5.596;2024-01-15T06:26:58;9.10;;;2.88;;
19205;SDS011;59358;52.134;5.596;2024-01-15T06:29:25;11.52;;;3.08;;
19205;SDS011;59358;52.134;5.596;2024-01-15T06:31:53;5.55;;;2.05;;
19205;SDS011;59358;52.134;5.596;2024-01-15T06:34:20;6.95;;;2.30;;
19205;SDS011;59358;52.134;5.596;2024-01-15T06:36:46;4.30;;;2.10;;
19205;SDS011;59358;52.134;5.596;2024-01-15T06:39:13;15.45;;;2.78;;
19205;SDS011;59358;52.134;5.596;2024-01-15T06:41:42;15.43;;;3.75;;
19205;SDS011;59358;52.134;5.596;2024-01-15T06:44:09;12.27;;;5.25;;
19205;SDS011;59358;52.134;5.596;2024-01-15T06:46:36;16.40;;;6.72;;
19205;SDS011;59358;52.134;5.596;2024-01-15T06:49:03;13.80;;;6.07;;
19205;SDS011;59358;52.134;5.596;2024-01-15T06:51:30;14.65;;;6.10;;
19205;SDS011;59358;52.134;5.596;2024-01-15T06:53:56;15.30;;;4.18;;
19205;SDS011;59358;52.134;5.596;2024-01-15T06:56:23;13.23;;;4.55;;
19205;SDS011;59358;52.134;5.596;2024-01-15T06:58:51;18.67;;;5.18;;
19205;SDS011;59358;52.134;5.596;2024-01-15T07:01:18;13.38;;;4.47;;
19205;SDS011;59358;52.134;5.596;2024-01-15T07:03:45;9.88;;;4.28;;
19205;SDS011;59358;52.134;5.596;2024-01-15T07:06:12;12.60;;;4.45;;
19205;SDS011;59358;52.134;5.596;2024-01-15T07:08:39;14.07;;;5.20;;
19205;SDS011;59358;52.134;5.596;2024-01-15T07:11:06;15.50;;;6.00;;
19205;SDS011;59358;52.134;5.596;2024-01-15T07:13:33;22.27;;;6.47;;
19205;SDS011;59358;52.134;5.596;2024-01-15T07:16:01;15.48;;;7.53;;
19205;SDS011;59358;52.134;5.596;2024-01-15T07:18:28;15.27;;;7.95;;
19205;SDS011;59358;52.134;5.596;2024-01-15T07:20:55;19.60;;;7.95;;
19205;SDS011;59358;52.134;5.596;2024-01-15T07:23:22;18.13;;;8.45;;
19205;SDS011;59358;52.134;5.596;2024-01-15T07:25:49;17.63;;;9.23;;
19205;SDS011;59358;52.134;5.596;2024-01-15T07:28:15;12.10;;;7.68;;
19205;SDS011;59358;52.134;5.596;2024-01-15T07:30:42;16.60;;;8.75;;
19205;SDS011;59358;52.134;5.596;2024-01-15T07:33:11;18.85;;;7.63;;
19205;SDS011;59358;52.134;5.596;2024-01-15T07:35:38;16.90;;;8.68;;
19205;SDS011;59358;52.134;5.596;2024-01-15T07:38:05;13.98;;;7.20;;
19205;SDS011;59358;52.134;5.596;2024-01-15T07:40:32;11.88;;;7.38;;
19205;SDS011;59358;52.134;5.596;2024-01-15T07:42:58;12.30;;;6.47;;
19205;SDS011;59358;52.134;5.596;2024-01-15T07:45:26;12.23;;;5.90;;
19205;SDS011;59358;52.134;5.596;2024-01-15T07:47:53;15.05;;;6.28;;
19205;SDS011;59358;52.134;5.596;2024-01-15T07:50:21;12.73;;;5.93;;
19205;SDS011;59358;52.134;5.596;2024-01-15T07:52:48;12.30;;;5.78;;
19205;SDS011;59358;52.134;5.596;2024-01-15T07:55:16;16.25;;;5.95;;
19205;SDS011;59358;52.134;5.596;2024-01-15T07:57:43;8.88;;;5.93;;
19205;SDS011;59358;52.134;5.596;2024-01-15T08:00:10;12.95;;;6.15;;
19205;SDS011;59358;52.134;5.596;2024-01-15T08:02:37;14.35;;;6.03;;
19205;SDS011;59358;52.134;5.596;2024-01-15T08:05:04;15.52;;;6.93;;
19205;SDS011;59358;52.134;5.596;2024-01-15T08:07:33;14.43;;;6.53;;
19205;SDS011;59358;52.134;5.596;2024-01-15T08:09:59;13.23;;;6.75;;
19205;SDS011;59358;52.134;5.596;2024-01-15T08:12:26;14.15;;;6.63;;
19205;SDS011;59358;52.134;5.596;2024-01-15T08:14:53;18.90;;;6.47;;
19205;SDS011;59358;52.134;5.596;2024-01-15T08:17:20;15.52;;;5.25;;
19205;SDS011;59358;52.134;5.596;2024-01-15T08:19:46;11.77;;;7.00;;
19205;SDS011;59358;52.134;5.596;2024-01-15T08:22:13;13.63;;;7.53;;
19205;SDS011;59358;52.134;5.596;2024-01-15T08:24:41;14.18;;;6.15;;
19205;SDS011;59358;52.134;5.596;2024-01-15T08:27:10;12.00;;;5.40;;
19205;SDS011;59358;52.134;5.596;2024-01-15T08:29:37;14.75;;;6.20;;
19205;SDS011;59358;52.134;5.596;2024-01-15T08:32:04;17.65;;;5.50;;
19205;SDS011;59358;52.134;5.596;2024-01-15T08:34:31;23.55;;;6.10;;
19205;SDS011;59358;52.134;5.596;2024-01-15T08:36:58;13.63;;;6.20;;
19205;SDS011;59358;52.134;5.596;2024-01-15T08:39:25;20.27;;;7.15;;
19205;SDS011;59358;52.134;5.596;2024-01-15T08:41:53;15.75;;;7.38;;
19205;SDS011;59358;52.134;5.596;2024-01-15T08:44:20;12.93;;;6.72;;
19205;SDS011;59358;52.134;5.596;2024-01-15T08:46:47;18.58;;;5.78;;
19205;SDS011;59358;52.134;5.596;2024-01-15T08:49:13;15.45;;;7.10;;
19205;SDS011;59358;52.134;5.596;2024-01-15T08:51:40;15.35;;;7.75;;
19205;SDS011;59358;52.134;5.596;2024-01-15T08:54:07;17.55;;;8.05;;
19205;SDS011;59358;52.134;5.596;2024-01-15T08:56:34;13.60;;;6.63;;
19205;SDS011;59358;52.134;5.596;2024-01-15T08:59:02;15.88;;;6.82;;
19205;SDS011;59358;52.134;5.596;2024-01-15T09:01:31;13.93;;;6.97;;
19205;SDS011;59358;52.134;5.596;2024-01-15T09:03:58;18.08;;;7.20;;
19205;SDS011;59358;52.134;5.596;2024-01-15T09:06:25;20.48;;;7.85;;
19205;SDS011;59358;52.134;5.596;2024-01-15T09:08:52;20.33;;;7.63;;
19205;SDS011;59358;52.134;5.596;2024-01-15T09:11:18;18.55;;;7.28;;
19205;SDS011;59358;52.134;5.596;2024-01-15T09:13:45;20.67;;;7.30;;
19205;SDS011;59358;52.134;5.596;2024-01-15T09:16:13;15.65;;;7.72;;
19205;SDS011;59358;52.134;5.596;2024-01-15T09:18:40;17.48;;;7.43;;
19205;SDS011;59358;52.134;5.596;2024-01-15T09:21:07;17.67;;;6.40;;
19205;SDS011;59358;52.134;5.596;2024-01-15T09:23:33;15.80;;;6.03;;
19205;SDS011;59358;52.134;5.596;2024-01-15T09:26:00;15.05;;;6.32;;
19205;SDS011;59358;52.134;5.596;2024-01-15T09:28:27;17.92;;;6.13;;
19205;SDS011;59358;52.134;5.596;2024-01-15T09:30:54;17.02;;;5.78;;
19205;SDS011;59358;52.134;5.596;2024-01-15T09:33:22;14.85;;;5.53;;
19205;SDS011;59358;52.134;5.596;2024-01-15T09:35:49;19.98;;;4.28;;
19205;SDS011;59358;52.134;5.596;2024-01-15T09:38:15;10.50;;;3.33;;
19205;SDS011;59358;52.134;5.596;2024-01-15T09:40:43;11.43;;;3.63;;
19205;SDS011;59358;52.134;5.596;2024-01-15T09:43:12;14.15;;;3.78;;
19205;SDS011;59358;52.134;5.596;2024-01-15T09:45:40;11.75;;;3.67;;
19205;SDS011;59358;52.134;5.596;2024-01-15T09:48:08;8.35;;;3.50;;
19205;SDS011;59358;52.134;5.596;2024-01-15T09:50:36;12.38;;;3.70;;
19205;SDS011;59358;52.134;5.596;2024-01-15T09:53:03;13.95;;;4.30;;
19205;SDS011;59358;52.134;5.596;2024-01-15T09:55:31;8.18;;;3.53;;
19205;SDS011;59358;52.134;5.596;2024-01-15T09:57:59;16.23;;;3.97;;
19205;SDS011;59358;52.134;5.596;2024-01-15T10:00:26;16.10;;;3.55;;
19205;SDS011;59358;52.134;5.596;2024-01-15T10:02:55;17.67;;;4.90;;
19205;SDS011;59358;52.134;5.596;2024-01-15T10:05:22;8.05;;;2.80;;
19205;SDS011;59358;52.134;5.596;2024-01-15T10:07:51;6.63;;;2.80;;
19205;SDS011;59358;52.134;5.596;2024-01-15T10:10:19;13.35;;;2.70;;
19205;SDS011;59358;52.134;5.596;2024-01-15T10:12:46;9.27;;;2.80;;
19205;SDS011;59358;52.134;5.596;2024-01-15T10:15:13;4.65;;;2.42;;
19205;SDS011;59358;52.134;5.596;2024-01-15T10:17:41;7.03;;;2.60;;
19205;SDS011;59358;52.134;5.596;2024-01-15T10:20:08;7.47;;;2.95;;
19205;SDS011;59358;52.134;5.596;2024-01-15T10:22:38;10.98;;;2.85;;
19205;SDS011;59358;52.134;5.596;2024-01-15T10:25:08;16.15;;;4.28;;
19205;SDS011;59358;52.134;5.596;2024-01-15T10:27:36;11.07;;;2.70;;
19205;SDS011;59358;52.134;5.596;2024-01-15T10:30:04;6.15;;;2.80;;
19205;SDS011;59358;52.134;5.596;2024-01-15T10:32:31;15.38;;;3.00;;
19205;SDS011;59358;52.134;5.596;2024-01-15T10:34:58;12.73;;;2.78;;
19205;SDS011;59358;52.134;5.596;2024-01-15T10:37:25;18.30;;;3.30;;
19205;SDS011;59358;52.134;5.596;2024-01-15T10:39:52;14.30;;;5.50;;
19205;SDS011;59358;52.134;5.596;2024-01-15T10:42:20;14.02;;;4.53;;
19205;SDS011;59358;52.134;5.596;2024-01-15T10:44:47;6.57;;;3.10;;
19205;SDS011;59358;52.134;5.596;2024-01-15T10:47:14;18.80;;;3.92;;
19205;SDS011;59358;52.134;5.596;2024-01-15T10:49:41;9.48;;;2.80;;
19205;SDS011;59358;52.134;5.596;2024-01-15T10:52:08;10.55;;;2.28;;
19205;SDS011;59358;52.134;5.596;2024-01-15T10:54:35;10.43;;;3.88;;
19205;SDS011;59358;52.134;5.596;2024-01-15T10:57:04;13.10;;;2.88;;
19205;SDS011;59358;52.134;5.596;2024-01-15T10:59:33;9.27;;;2.45;;
19205;SDS011;59358;52.134;5.596;2024-01-15T11:02:02;13.80;;;3.28;;
19205;SDS011;59358;52.134;5.596;2024-01-15T11:04:29;6.47;;;2.35;;
19205;SDS011;59358;52.134;5.596;2024-01-15T11:06:58;9.77;;;3.10;;
19205;SDS011;59358;52.134;5.596;2024-01-15T11:09:26;9.73;;;3.03;;
19205;SDS011;59358;52.134;5.596;2024-01-15T11:11:54;9.50;;;2.40;;
19205;SDS011;59358;52.134;5.596;2024-01-15T11:14:34;10.90;;;2.85;;
19205;SDS011;59358;52.134;5.596;2024-01-15T11:17:02;17.08;;;3.05;;
19205;SDS011;59358;52.134;5.596;2024-01-15T11:19:35;9.88;;;2.88;;
19205;SDS011;59358;52.134;5.596;2024-01-15T11:22:05;7.75;;;2.10;;
19205;SDS011;59358;52.134;5.596;2024-01-15T11:24:33;6.50;;;2.53;;
19205;SDS011;59358;52.134;5.596;2024-01-15T11:27:02;13.23;;;2.38;;
19205;SDS011;59358;52.134;5.596;2024-01-15T11:29:30;10.63;;;1.50;;
19205;SDS011;59358;52.134;5.596;2024-01-15T11:32:00;10.75;;;2.65;;
19205;SDS011;59358;52.134;5.596;2024-01-15T11:34:53;5.10;;;1.48;;
19205;SDS011;59358;52.134;5.596;2024-01-15T11:37:23;7.43;;;1.95;;
19205;SDS011;59358;52.134;5.596;2024-01-15T11:39:51;8.73;;;2.20;;
19205;SDS011;59358;52.134;5.596;2024-01-15T11:42:19;8.65;;;2.10;;
19205;SDS011;59358;52.134;5.596;2024-01-15T11:44:46;8.13;;;1.50;;
19205;SDS011;59358;52.134;5.596;2024-01-15T11:47:15;8.00;;;1.85;;
19205;SDS011;59358;52.134;5.596;2024-01-15T11:50:00;6.53;;;2.65;;
19205;SDS011;59358;52.134;5.596;2024-01-15T11:52:32;9.68;;;1.95;;
19205;SDS011;59358;52.134;5.596;2024-01-15T11:55:00;3.00;;;2.03;;
19205;SDS011;59358;52.134;5.596;2024-01-15T11:57:37;5.80;;;1.27;;
19205;SDS011;59358;52.134;5.596;2024-01-15T12:00:08;6.25;;;1.20;;
19205;SDS011;59358;52.134;5.596;2024-01-15T12:02:38;7.10;;;2.55;;
19205;SDS011;59358;52.134;5.596;2024-01-15T12:05:06;5.00;;;1.02;;
19205;SDS011;59358;52.134;5.596;2024-01-15T12:07:33;3.10;;;1.10;;
19205;SDS011;59358;52.134;5.596;2024-01-15T12:10:00;8.13;;;2.03;;
19205;SDS011;59358;52.134;5.596;2024-01-15T12:12:29;15.00;;;6.05;;
19205;SDS011;59358;52.134;5.596;2024-01-15T12:15:04;5.82;;;1.45;;
19205;SDS011;59358;52.134;5.596;2024-01-15T12:17:31;11.88;;;6.80;;
19205;SDS011;59358;52.134;5.596;2024-01-15T12:19:59;6.70;;;1.15;;
19205;SDS011;59358;52.134;5.596;2024-01-15T12:22:29;7.82;;;1.60;;
19205;SDS011;59358;52.134;5.596;2024-01-15T12:25:00;5.72;;;1.70;;
19205;SDS011;59358;52.134;5.596;2024-01-15T12:27:29;6.47;;;2.15;;
19205;SDS011;59358;52.134;5.596;2024-01-15T12:29:57;5.97;;;3.80;;
19205;SDS011;59358;52.134;5.596;2024-01-15T12:32:24;8.98;;;3.33;;
19205;SDS011;59358;52.134;5.596;2024-01-15T12:34:51;9.32;;;1.58;;
19205;SDS011;59358;52.134;5.596;2024-01-15T12:37:20;9.27;;;1.75;;
19205;SDS011;59358;52.134;5.596;2024-01-15T12:39:47;3.47;;;1.17;;
19205;SDS011;59358;52.134;5.596;2024-01-15T12:42:14;9.90;;;2.00;;
19205;SDS011;59358;52.134;5.596;2024-01-15T12:44:41;5.32;;;1.52;;
19205;SDS011;59358;52.134;5.596;2024-01-15T12:47:08;6.68;;;1.73;;
19205;SDS011;59358;52.134;5.596;2024-01-15T12:49:36;14.38;;;3.72;;
19205;SDS011;59358;52.134;5.596;2024-01-15T12:52:03;8.23;;;1.55;;
19205;SDS011;59358;52.134;5.596;2024-01-15T12:54:32;27.40;;;4.32;;
19205;SDS011;59358;52.134;5.596;2024-01-15T12:56:58;3.80;;;1.70;;
19205;SDS011;59358;52.134;5.596;2024-01-15T12:59:25;13.60;;;3.08;;
19205;SDS011;59358;52.134;5.596;2024-01-15T13:01:53;6.70;;;1.77;;
19205;SDS011;59358;52.134;5.596;2024-01-15T13:04:21;10.52;;;3.47;;
19205;SDS011;59358;52.134;5.596;2024-01-15T13:06:48;8.25;;;2.20;;
19205;SDS011;59358;52.134;5.596;2024-01-15T13:09:15;14.70;;;3.10;;
19205;SDS011;59358;52.134;5.596;2024-01-15T13:11:44;6.72;;;2.63;;
19205;SDS011;59358;52.134;5.596;2024-01-15T13:14:11;9.35;;;2.50;;
19205;SDS011;59358;52.134;5.596;2024-01-15T13:16:38;7.97;;;2.33;;
19205;SDS011;59358;52.134;5.596;2024-01-15T13:19:06;8.05;;;2.13;;
19205;SDS011;59358;52.134;5.596;2024-01-15T13:21:33;5.93;;;1.80;;
19205;SDS011;59358;52.134;5.596;2024-01-15T13:24:01;9.10;;;1.60;;
19205;SDS011;59358;52.134;5.596;2024-01-15T13:26:30;13.88;;;2.47;;
19205;SDS011;59358;52.134;5.596;2024-01-15T13:28:58;7.35;;;1.75;;
19205;SDS011;59358;52.134;5.596;2024-01-15T13:31:25;9.77;;;1.80;;
19205;SDS011;59358;52.134;5.596;2024-01-15T13:33:52;5.07;;;1.70;;
19205;SDS011;59358;52.134;5.596;2024-01-15T13:36:20;6.68;;;2.08;;
19205;SDS011;59358;52.134;5.596;2024-01-15T13:38:48;7.28;;;2.90;;
19205;SDS011;59358;52.134;5.596;2024-01-15T13:41:15;8.63;;;2.13;;
19205;SDS011;59358;52.134;5.596;2024-01-15T13:43:43;14.23;;;2.63;;
19205;SDS011;59358;52.134;5.596;2024-01-15T13:46:13;8.18;;;1.40;;
19205;SDS011;59358;52.134;5.596;2024-01-15T13:48:39;9.18;;;2.28;;
19205;SDS011;59358;52.134;5.596;2024-01-15T13:51:06;10.52;;;2.00;;
19205;SDS011;59358;52.134;5.596;2024-01-15T13:53:33;11.68;;;2.10;;
19205;SDS011;59358;52.134;5.596;2024-01-15T13:56:00;11.10;;;1.67;;
19205;SDS011;59358;52.134;5.596;2024-01-15T13:58:26;7.63;;;1.75;;
19205;SDS011;59358;52.134;5.596;2024-01-15T14:00:53;9.32;;;2.65;;
19205;SDS011;59358;52.134;5.596;2024-01-15T14:03:21;9.85;;;1.83;;
19205;SDS011;59358;52.134;5.596;2024-01-15T14:05:48;8.80;;;3.42;;
19205;SDS011;59358;52.134;5.596;2024-01-15T14:08:16;7.78;;;2.60;;
19205;SDS011;59358;52.134;5.596;2024-01-15T14:10:43;11.25;;;2.13;;
19205;SDS011;59358;52.134;5.596;2024-01-15T14:13:10;9.27;;;2.88;;
19205;SDS011;59358;52.134;5.596;2024-01-15T14:15:36;7.35;;;1.70;;
19205;SDS011;59358;52.134;5.596;2024-01-15T14:18:04;25.70;;;4.03;;
19205;SDS011;59358;52.134;5.596;2024-01-15T14:20:32;14.55;;;2.35;;
19205;SDS011;59358;52.134;5.596;2024-01-15T14:22:59;9.50;;;3.03;;
19205;SDS011;59358;52.134;5.596;2024-01-15T14:25:25;10.15;;;2.47;;
19205;SDS011;59358;52.134;5.596;2024-01-15T14:27:52;8.93;;;2.50;;
19205;SDS011;59358;52.134;5.596;2024-01-15T14:30:19;8.73;;;1.70;;
19205;SDS011;59358;52.134;5.596;2024-01-15T14:32:46;11.40;;;2.47;;
19205;SDS011;59358;52.134;5.596;2024-01-15T14:35:12;6.20;;;2.17;;
19205;SDS011;59358;52.134;5.596;2024-01-15T14:37:41;11.73;;;2.40;;
19205;SDS011;59358;52.134;5.596;2024-01-15T14:40:08;8.60;;;2.10;;